Terminal Aerodrome Forecast
Issued by NWS

Home | Current Version | Previous Version | Text Only | Print | Product List | Glossary On
Versions: 1 2 3 4 5 6 7 8 9 10 11 12 13 14
577
FTUS43 KAPX 280534
TAFAPN
TAF
KAPN 280534Z 2806/2906 VRB03KT P6SM BKN100
     FM281700 04007KT P6SM SCT050 BKN200
     FM290300 01006KT P6SM FEW250=

USA.gov is the U.S. government's official web portal to all federal, state and local government web resources and services.